In Rescue
 
Open Full Screen Window  High Contrast Mode
Wind Gusting 00 knots
04
February 02, 2023 3:41 PM PST
Weather Information
Wind Direction
  260 °
Wind Speed
  04 kt (5 mph)
Wind Gust
  00 kt (0 mph)
Altimeter
30.25 in
Visibility
10 SM
Temperature
20° C
68° F
Dewpoint
-03° C
27° F
Humidity
21%
1hr Rain Fall
00.00 in.
24hr Rain Fall
00.00 in.
Sky Condition
Clear
VFR

METAR KSBD 022341Z AUTO 26004KT 10SM CLR 20/M03 A3025 RMK AO2 T01971027

FAA Disclaimer: The data displayed is for advisory purposes only and is not to be used for flight planning or operations.